Time;durP1;ratioP1;P1;durP2;ratioP2;P2;SDS_P1;SDS_P2;PMS_P1;PMS_P2;Temp;Humidity;BMP_temperature;BMP_pressure;BME280_temperature;BME280_humidity;BME280_pressure;Samples;Min_cycle;Max_cycle;Signal;HPM_P1;HPM_P2
2022/10/06 00:02:10;;;;;;;7.95;2.10;;;;;;;20.84;44.15;102164.44;5091156;28;20062;-72
2022/10/06 00:04:35;;;;;;;5.78;1.38;;;;;;;21.38;43.14;102172.41;5091152;28;20035;-71
2022/10/06 00:07:01;;;;;;;5.75;1.23;;;;;;;21.31;43.38;102165.56;5091121;28;20020;-72
2022/10/06 00:09:26;;;;;;;11.18;1.63;;;;;;;20.99;43.23;102178.13;5090818;28;20032;-71
2022/10/06 00:11:51;;;;;;;8.93;1.10;;;;;;;21.55;41.69;102178.97;5091502;28;20392;-71
2022/10/06 00:14:17;;;;;;;12.95;2.38;;;;;;;21.13;41.58;102181.22;5091410;28;20177;-72
2022/10/06 00:16:42;;;;;;;11.13;1.85;;;;;;;21.11;42.08;102191.00;5091137;28;20105;-71
2022/10/06 00:19:08;;;;;;;8.75;1.30;;;;;;;20.89;42.43;102195.31;5092078;28;20028;-72
2022/10/06 00:21:33;;;;;;;9.52;2.30;;;;;;;21.30;42.63;102206.38;5093033;28;20111;-72
2022/10/06 00:23:58;;;;;;;8.82;1.65;;;;;;;22.09;40.76;102207.19;5089838;28;20040;-71
2022/10/06 00:26:24;;;;;;;12.38;2.00;;;;;;;21.62;41.90;102212.41;5092253;28;20032;-71
2022/10/06 00:28:49;;;;;;;15.90;1.70;;;;;;;21.69;40.94;102220.13;5091195;28;20024;-72
2022/10/06 00:31:18;;;;;;;12.30;2.65;;;;;;;22.17;40.79;102215.75;5090720;28;20476;-72
2022/10/06 00:33:43;;;;;;;16.40;1.75;;;;;;;19.86;45.07;102236.34;5089209;28;20047;-71
2022/10/06 00:36:09;;;;;;;9.65;1.38;;;;;;;21.63;41.54;102230.13;5090377;28;20024;-71
2022/10/06 00:38:34;;;;;;;11.50;1.65;;;;;;;19.81;44.86;102242.63;5089695;28;20039;-72
2022/10/06 00:41:00;;;;;;;9.90;1.73;;;;;;;21.12;42.91;102245.94;5107526;28;20028;-72
2022/10/06 00:43:48;;;;;;;13.63;1.55;;;;;;;19.62;45.67;102251.97;5091298;28;20032;-71
2022/10/06 00:46:20;;;;;;;8.13;2.00;;;;;;;21.18;43.00;102267.03;5087780;28;20075;-72
2022/10/06 00:48:50;;;;;;;9.55;1.40;;;;;;;19.50;45.77;102264.59;5082448;28;20023;-72
2022/10/06 00:51:16;;;;;;;9.73;1.10;;;;;;;20.57;43.88;102263.56;5091242;28;20039;-72
2022/10/06 00:53:41;;;;;;;10.82;1.80;;;;;;;20.04;45.13;102266.81;5090276;28;20507;-71
2022/10/06 00:56:07;;;;;;;10.20;1.52;;;;;;;19.50;45.72;102275.19;5087752;28;20387;-72
2022/10/06 00:58:32;;;;;;;11.40;1.55;;;;;;;20.48;43.92;102276.19;5092372;28;20030;-71
2022/10/06 01:00:58;;;;;;;10.07;1.63;;;;;;;20.92;42.65;102291.72;5092566;28;20377;-72
2022/10/06 01:03:31;;;;;;;12.15;1.40;;;;;;;21.14;42.88;102294.63;5092821;28;20032;-71
2022/10/06 01:05:58;;;;;;;9.13;1.83;;;;;;;20.96;42.64;102282.75;5088637;28;20024;-72
2022/10/06 01:08:24;;;;;;;11.30;1.40;;;;;;;21.55;40.93;102290.69;5090044;28;20395;-72
2022/10/06 01:10:50;;;;;;;10.52;1.63;;;;;;;19.91;44.12;102290.16;5089239;28;20050;-72
2022/10/06 01:13:17;;;;;;;10.45;1.40;;;;;;;19.87;43.83;102304.41;5091229;28;20028;-71
2022/10/06 01:16:14;;;;;;;10.65;1.40;;;;;;;20.74;42.85;102314.41;5089297;28;20032;-72
2022/10/06 01:18:42;;;;;;;20.40;3.20;;;;;;;20.94;42.46;102320.94;5088191;28;20040;-71
2022/10/06 01:21:21;;;;;;;13.65;1.58;;;;;;;20.15;43.89;102320.47;5088686;28;20373;-72
2022/10/06 01:23:48;;;;;;;14.75;1.63;;;;;;;19.96;43.36;102320.06;5089843;28;20035;-72
2022/10/06 01:26:15;;;;;;;14.52;2.20;;;;;;;21.51;41.22;102321.81;5090255;28;20024;-72
2022/10/06 01:28:41;;;;;;;9.70;1.60;;;;;;;21.47;40.44;102326.38;5088764;28;20070;-72
2022/10/06 01:31:08;;;;;;;10.60;1.75;;;;;;;20.23;42.29;102333.53;5089304;28;20427;-72
2022/10/06 01:33:33;;;;;;;10.07;1.83;;;;;;;20.70;41.26;102323.38;5089633;28;20068;-72
2022/10/06 01:35:58;;;;;;;10.90;1.15;;;;;;;21.15;40.48;102333.56;5090106;28;20368;-72
2022/10/06 01:38:24;;;;;;;10.13;1.83;;;;;;;20.49;42.39;102341.66;5092007;28;20024;-72
2022/10/06 01:40:51;;;;;;;14.93;1.70;;;;;;;21.05;41.46;102340.09;5092038;28;20080;-72
2022/10/06 01:43:17;;;;;;;14.25;1.67;;;;;;;20.77;41.48;102348.88;5095026;28;20048;-71
2022/10/06 01:45:42;;;;;;;11.52;1.65;;;;;;;20.02;43.66;102353.53;5093972;28;20023;-72
2022/10/06 01:48:08;;;;;;;11.88;1.70;;;;;;;21.09;41.10;102352.38;5091881;28;20468;-72
2022/10/06 01:50:34;;;;;;;11.52;1.55;;;;;;;19.57;44.19;102346.66;5094119;28;20051;-72
2022/10/06 01:52:59;;;;;;;15.68;1.98;;;;;;;20.21;42.75;102345.97;5095647;28;20051;-72
2022/10/06 01:55:25;;;;;;;9.25;1.80;;;;;;;20.15;43.22;102352.31;5095926;28;20023;-72
2022/10/06 01:57:50;;;;;;;9.25;1.40;;;;;;;20.27;42.92;102361.75;5092564;28;20468;-72
2022/10/06 02:00:16;;;;;;;10.45;1.55;;;;;;;18.93;45.50;102365.72;5075971;28;20472;-71
2022/10/06 02:02:42;;;;;;;10.68;1.38;;;;;;;20.84;41.75;102361.06;5094200;28;20032;-72
2022/10/06 02:05:08;;;;;;;13.63;2.15;;;;;;;20.29;42.56;102367.88;5110347;28;20084;-72
2022/10/06 02:07:34;;;;;;;10.60;1.55;;;;;;;19.65;43.81;102361.47;5109565;28;20064;-72
2022/10/06 02:10:00;;;;;;;11.18;1.48;;;;;;;20.66;42.37;102369.53;5092497;28;20065;-72
2022/10/06 02:12:25;;;;;;;5.55;1.27;;;;;;;21.14;41.42;102377.03;5094616;28;20055;-72
2022/10/06 02:14:51;;;;;;;11.13;1.42;;;;;;;19.80;43.54;102384.13;5094100;28;20025;-72
2022/10/06 02:17:16;;;;;;;9.57;1.98;;;;;;;20.66;41.12;102382.78;5093867;28;20042;-72
2022/10/06 02:19:41;;;;;;;10.48;1.63;;;;;;;20.20;42.48;102392.03;5093194;28;20598;-72
2022/10/06 02:22:07;;;;;;;8.90;2.03;;;;;;;21.34;40.11;102386.19;5092947;28;20059;-72
2022/10/06 02:24:33;;;;;;;11.25;1.15;;;;;;;21.04;40.69;102390.63;5094072;28;20492;-72
2022/10/06 02:26:59;;;;;;;13.63;1.60;;;;;;;20.34;41.80;102395.19;5092462;28;20526;-72
2022/10/06 02:29:24;;;;;;;10.18;1.38;;;;;;;21.15;40.59;102397.34;5093708;28;20031;-72
2022/10/06 02:31:51;;;;;;;9.38;1.70;;;;;;;20.84;41.06;102398.28;5091551;28;20028;-72
2022/10/06 02:34:16;;;;;;;8.60;1.80;;;;;;;20.79;41.64;102400.19;5092445;28;20571;-72
2022/10/06 02:36:41;;;;;;;6.88;1.25;;;;;;;21.10;40.64;102407.28;5092870;28;20119;-72
2022/10/06 02:39:07;;;;;;;3.65;1.00;;;;;;;21.02;40.44;102403.97;5094710;28;20054;-72
2022/10/06 02:41:32;;;;;;;8.40;1.52;;;;;;;20.96;40.95;102409.44;5092103;28;20027;-72
2022/10/06 02:43:57;;;;;;;10.60;1.38;;;;;;;20.51;42.10;102422.16;5093475;28;20093;-72
2022/10/06 02:46:23;;;;;;;10.63;1.50;;;;;;;19.54;44.82;102428.94;5091501;28;20039;-72
2022/10/06 02:48:49;;;;;;;15.63;1.73;;;;;;;20.92;41.62;102429.06;5091447;28;20447;-72
2022/10/06 02:51:19;;;;;;;8.45;2.08;;;;;;;21.21;41.34;102438.84;5096748;28;20044;-73
2022/10/06 02:53:49;;;;;;;14.23;1.70;;;;;;;20.58;42.08;102440.56;5112984;28;20035;-72
2022/10/06 02:56:21;;;;;;;10.13;1.60;;;;;;;20.59;42.03;102439.69;5100408;28;20119;-72
2022/10/06 02:58:46;;;;;;;10.85;1.70;;;;;;;19.14;44.26;102452.75;5094414;28;20031;-73
2022/10/06 03:01:15;;;;;;;13.35;1.77;;;;;;;21.10;41.17;102459.56;5090819;28;20020;-72
2022/10/06 03:03:40;;;;;;;8.45;1.50;;;;;;;20.80;42.28;102454.19;5092526;28;20028;-72
2022/10/06 03:06:20;;;;;;;9.40;1.65;;;;;;;19.55;44.18;102451.88;5092275;28;20062;-72
2022/10/06 03:08:54;;;;;;;7.95;1.73;;;;;;;18.92;45.52;102467.34;5093554;28;20024;-72
2022/10/06 03:11:21;;;;;;;13.25;1.90;;;;;;;19.59;44.43;102472.13;5093066;28;20024;-72
2022/10/06 03:13:48;;;;;;;13.60;1.77;;;;;;;19.88;43.64;102475.94;5091522;28;20074;-72
2022/10/06 03:16:34;;;;;;;14.43;2.47;;;;;;;19.32;45.01;102477.13;5090777;28;20391;-73
2022/10/06 03:19:00;;;;;;;9.55;1.30;;;;;;;20.34;41.63;102480.16;5092176;28;20036;-72
2022/10/06 03:21:29;;;;;;;16.58;1.50;;;;;;;19.90;42.84;102482.09;5092848;28;20031;-72
2022/10/06 03:23:56;;;;;;;11.88;1.58;;;;;;;20.47;42.04;102491.31;5091992;28;20024;-72
2022/10/06 03:26:26;;;;;;;15.43;2.28;;;;;;;20.27;42.25;102491.84;5092785;28;20028;-73
2022/10/06 03:28:52;;;;;;;12.73;1.40;;;;;;;19.86;43.09;102494.56;5087943;28;20059;-72
2022/10/06 03:31:18;;;;;;;10.88;1.67;;;;;;;20.30;42.22;102499.72;5093358;28;20069;-72
2022/10/06 03:33:43;;;;;;;13.98;1.90;;;;;;;19.97;42.74;102507.56;5092563;28;20032;-72
2022/10/06 03:36:11;;;;;;;10.00;1.73;;;;;;;19.59;43.43;102511.91;5091758;28;20093;-72
2022/10/06 03:38:37;;;;;;;7.03;1.83;;;;;;;19.55;43.72;102511.13;5091425;28;20035;-73
2022/10/06 03:41:03;;;;;;;12.73;1.20;;;;;;;19.10;44.75;102519.97;5089658;28;20031;-73
2022/10/06 03:43:28;;;;;;;13.13;1.75;;;;;;;19.98;42.45;102525.25;5088896;28;20070;-74
2022/10/06 03:45:59;;;;;;;13.43;1.80;;;;;;;19.59;43.27;102522.53;5109325;28;20055;-73
2022/10/06 03:48:25;;;;;;;12.55;1.38;;;;;;;20.01;42.99;102535.78;5108753;27;20020;-73
2022/10/06 03:51:00;;;;;;;11.02;2.00;;;;;;;20.49;41.89;102540.84;5092939;27;20044;-73
2022/10/06 03:53:27;;;;;;;11.27;2.42;;;;;;;20.49;41.80;102538.19;5078733;28;20149;-73
2022/10/06 03:56:02;;;;;;;13.45;1.60;;;;;;;20.38;41.51;102534.06;5092179;28;20049;-73
2022/10/06 03:58:28;;;;;;;12.57;1.45;;;;;;;19.99;42.22;102543.78;5089352;28;20078;-73
2022/10/06 04:01:14;;;;;;;11.88;1.38;;;;;;;20.56;41.68;102543.34;5082145;28;20404;-73
2022/10/06 04:03:39;;;;;;;11.85;2.05;;;;;;;20.74;41.24;102548.22;5091444;28;20065;-73
2022/10/06 04:06:06;;;;;;;15.32;1.95;;;;;;;20.34;41.96;102547.38;5091344;28;20534;-73
2022/10/06 04:08:33;;;;;;;11.45;2.65;;;;;;;20.01;42.26;102559.69;5091533;28;20049;-72
2022/10/06 04:11:14;;;;;;;14.98;1.58;;;;;;;20.92;41.06;102564.59;5090196;28;20456;-73
2022/10/06 04:13:40;;;;;;;12.15;1.60;;;;;;;19.64;43.78;102571.03;5090630;28;20027;-73
2022/10/06 04:16:10;;;;;;;10.70;1.90;;;;;;;19.28;44.08;102576.19;5091636;28;20027;-73
2022/10/06 04:18:37;;;;;;;8.80;1.90;;;;;;;20.12;43.05;102570.91;5089292;28;20020;-73
2022/10/06 04:21:03;;;;;;;11.25;1.50;;;;;;;20.33;42.82;102571.31;5090845;28;20031;-73
2022/10/06 04:23:28;;;;;;;13.23;1.98;;;;;;;19.78;43.46;102571.66;5090846;28;20043;-74
2022/10/06 04:25:58;;;;;;;16.23;1.70;;;;;;;19.28;44.54;102581.47;5089915;28;20035;-73
2022/10/06 04:28:24;;;;;;;11.80;1.40;;;;;;;18.95;45.17;102595.31;5086925;28;20468;-73
2022/10/06 04:31:00;;;;;;;13.25;1.65;;;;;;;20.02;43.16;102584.41;5092559;28;20027;-73
2022/10/06 04:33:26;;;;;;;13.63;1.90;;;;;;;20.43;42.99;102599.44;5089621;28;20070;-73
2022/10/06 04:36:03;;;;;;;10.77;1.73;;;;;;;19.31;44.53;102597.31;5089673;28;20028;-74
2022/10/06 04:38:31;;;;;;;16.50;1.40;;;;;;;20.19;42.98;102595.53;5091375;28;20089;-74
2022/10/06 04:41:04;;;;;;;12.07;2.23;;;;;;;20.80;41.87;102597.66;5090794;28;20031;-74
2022/10/06 04:43:29;;;;;;;9.23;1.58;;;;;;;20.49;41.88;102603.72;5091310;28;20120;-74
2022/10/06 04:45:59;;;;;;;14.88;2.30;;;;;;;20.02;42.66;102601.25;5089537;28;20551;-74
2022/10/06 04:48:26;;;;;;;14.60;2.00;;;;;;;20.14;42.23;102600.06;5087044;28;20016;-74
2022/10/06 04:50:56;;;;;;;16.23;2.33;;;;;;;19.68;43.44;102607.22;5089864;28;20130;-74
2022/10/06 04:53:22;;;;;;;7.10;1.90;;;;;;;19.85;42.95;102608.69;5090271;28;20051;-74
2022/10/06 04:56:00;;;;;;;14.07;1.83;;;;;;;20.74;41.74;102600.50;5090057;28;20052;-74
2022/10/06 04:58:28;;;;;;;17.03;2.23;;;;;;;20.99;41.09;102606.94;5074850;28;20107;-74
2022/10/06 05:00:54;;;;;;;9.60;1.60;;;;;;;20.14;42.23;102622.19;5069547;28;20024;-74
2022/10/06 05:03:19;;;;;;;16.13;2.47;;;;;;;21.16;40.68;102619.78;5086941;28;20101;-74
2022/10/06 05:05:44;;;;;;;15.27;2.77;;;;;;;20.56;42.03;102623.03;5091654;28;20027;-74
2022/10/06 05:08:10;;;;;;;6.97;1.25;;;;;;;20.18;42.01;102633.59;5088911;28;20028;-74
2022/10/06 05:10:35;;;;;;;12.90;1.53;;;;;;;21.29;40.35;102638.06;5091199;28;20043;-74
2022/10/06 05:13:02;;;;;;;17.65;2.60;;;;;;;21.10;40.88;102650.97;5091123;28;20035;-74
2022/10/06 05:15:28;;;;;;;13.00;2.35;;;;;;;21.15;40.50;102644.59;5091411;28;20023;-74
2022/10/06 05:17:53;;;;;;;13.10;1.80;;;;;;;20.95;41.26;102653.13;5089065;28;20032;-74
2022/10/06 05:20:21;;;;;;;9.77;1.70;;;;;;;21.11;40.77;102653.59;5090315;28;20028;-74
2022/10/06 05:22:47;;;;;;;10.27;1.50;;;;;;;21.16;40.34;102650.81;5091389;28;20024;-74
2022/10/06 05:25:12;;;;;;;12.97;2.10;;;;;;;20.93;40.92;102654.91;5091656;28;20349;-74
2022/10/06 05:27:38;;;;;;;14.03;1.93;;;;;;;21.10;40.67;102658.94;5090535;28;20557;-74
2022/10/06 05:30:03;;;;;;;17.60;1.70;;;;;;;21.41;40.34;102661.66;5087857;28;20549;-74
2022/10/06 05:32:29;;;;;;;10.87;1.77;;;;;;;20.55;41.68;102663.78;5089853;28;20023;-74
2022/10/06 05:34:54;;;;;;;19.37;1.70;;;;;;;20.12;42.67;102670.91;5091527;28;20027;-74
2022/10/06 05:37:19;;;;;;;14.27;1.80;;;;;;;20.71;41.74;102667.84;5086467;28;20056;-74
2022/10/06 05:39:45;;;;;;;13.40;2.13;;;;;;;20.46;41.84;102681.69;5090511;28;20468;-74
2022/10/06 05:42:11;;;;;;;18.40;2.37;;;;;;;20.01;43.41;102689.72;5090186;28;20061;-74
2022/10/06 05:44:36;;;;;;;13.70;2.00;;;;;;;20.13;42.59;102684.16;5088985;28;20028;-74
2022/10/06 05:47:01;;;;;;;11.30;1.70;;;;;;;21.08;40.27;102693.53;5091007;28;20471;-74
2022/10/06 05:49:27;;;;;;;11.93;1.63;;;;;;;20.02;43.24;102699.44;5088171;28;20101;-74
2022/10/06 05:51:52;;;;;;;12.27;2.13;;;;;;;20.23;43.00;102699.91;5088926;28;20570;-74
2022/10/06 05:54:17;;;;;;;16.37;2.10;;;;;;;20.55;42.28;102706.28;5089942;28;20008;-74
2022/10/06 05:56:43;;;;;;;9.73;1.57;;;;;;;20.48;42.27;102705.53;5089434;28;20025;-74
2022/10/06 05:59:08;;;;;;;13.37;2.00;;;;;;;20.97;41.40;102708.88;5090321;28;20016;-74
2022/10/06 06:01:40;;;;;;;9.07;1.90;;;;;;;20.32;42.52;102710.34;5088740;28;20048;-74
2022/10/06 06:04:08;;;;;;;12.43;1.35;;;;;;;20.47;42.15;102715.31;5086038;28;20020;-74
2022/10/06 06:06:42;;;;;;;13.33;2.23;;;;;;;19.93;43.60;102718.19;5090517;28;20031;-74
2022/10/06 06:09:11;;;;;;;13.97;1.60;;;;;;;20.36;42.81;102709.34;5117798;28;20053;-74
2022/10/06 06:11:39;;;;;;;11.67;1.90;;;;;;;20.18;43.07;102713.25;5103067;28;20105;-74
2022/10/06 06:17:15;;;;;;;7.40;1.73;;;;;;;20.40;42.11;102724.31;5085453;28;20054;-74
2022/10/06 06:19:41;;;;;;;13.73;2.23;;;;;;;20.01;43.23;102721.56;5087203;28;20427;-74
2022/10/06 06:22:06;;;;;;;13.13;1.60;;;;;;;20.76;41.70;102727.09;5090042;28;20047;-74
2022/10/06 06:24:32;;;;;;;9.73;1.20;;;;;;;20.84;41.71;102730.44;5092760;28;20020;-74
2022/10/06 06:26:57;;;;;;;9.63;1.73;;;;;;;20.32;42.74;102731.56;5092575;28;20139;-74
2022/10/06 06:29:22;;;;;;;12.33;1.97;;;;;;;20.68;41.76;102729.91;5093767;28;20479;-74
2022/10/06 06:31:49;;;;;;;15.60;2.00;;;;;;;21.12;41.12;102732.44;5094233;28;20042;-74
2022/10/06 06:34:15;;;;;;;15.23;2.13;;;;;;;21.00;41.45;102740.69;5093289;28;20031;-74
2022/10/06 06:36:44;;;;;;;15.87;1.60;;;;;;;20.84;41.54;102740.19;5093980;28;20032;-74
2022/10/06 06:39:12;;;;;;;10.57;2.27;;;;;;;20.54;42.00;102752.34;5092369;28;20131;-74
2022/10/06 06:41:45;;;;;;;11.17;1.90;;;;;;;20.80;42.28;102755.34;5092271;28;20038;-74
2022/10/06 06:44:12;;;;;;;11.47;1.67;;;;;;;20.15;43.04;102755.78;5093576;28;20137;-74
2022/10/06 06:46:39;;;;;;;21.97;2.83;;;;;;;19.79;43.68;102767.03;5093091;28;20541;-74
2022/10/06 06:49:05;;;;;;;12.97;1.80;;;;;;;20.16;43.70;102766.38;5089396;28;20111;-74
2022/10/06 06:51:33;;;;;;;12.83;1.70;;;;;;;19.56;44.28;102770.09;5093080;28;20115;-74
2022/10/06 06:54:01;;;;;;;12.80;1.97;;;;;;;19.99;44.28;102776.47;5092552;28;20031;-74
2022/10/06 06:56:27;;;;;;;16.60;2.08;;;;;;;20.46;43.77;102787.91;5090443;28;20111;-73
2022/10/06 06:58:53;;;;;;;5.43;1.25;;;;;;;19.88;44.62;102789.94;5090974;28;20203;-74
2022/10/06 07:01:20;;;;;;;10.60;1.25;;;;;;;21.27;41.64;102780.84;5091543;28;20066;-74
2022/10/06 07:03:54;;;;;;;16.17;2.08;;;;;;;20.65;43.26;102793.72;5092912;28;20467;-74
2022/10/06 07:06:20;;;;;;;11.35;1.45;;;;;;;21.09;42.47;102804.28;5092493;28;20111;-74
2022/10/06 07:08:47;;;;;;;10.88;2.20;;;;;;;21.32;42.09;102805.53;5095735;28;20036;-74
2022/10/06 07:11:34;;;;;;;11.30;1.92;;;;;;;20.59;42.67;102816.88;5093182;28;20465;-74
2022/10/06 07:14:05;;;;;;;9.68;1.42;;;;;;;21.18;42.40;102814.72;5092285;28;20034;-74
2022/10/06 07:25:19;;;;;;;9.85;2.15;;;;;;;20.74;42.90;102839.63;5081439;28;20032;-75
2022/10/06 07:27:51;;;;;;;8.35;1.95;;;;;;;20.60;43.33;102843.41;5088500;28;20300;-75
2022/10/06 07:30:24;;;;;;;15.90;2.92;;;;;;;21.56;41.85;102840.47;5075297;28;20028;-74
2022/10/06 07:32:50;;;;;;;10.73;1.67;;;;;;;21.49;41.93;102835.25;5111718;27;20020;-74
2022/10/06 07:35:19;;;;;;;13.60;1.55;;;;;;;20.56;43.78;102851.47;5090081;28;20131;-74
2022/10/06 07:37:45;;;;;;;17.85;2.70;;;;;;;21.00;42.99;102839.06;5089406;28;20378;-74
2022/10/06 07:40:11;;;;;;;12.13;1.58;;;;;;;21.02;42.60;102845.22;5091164;28;20051;-74
2022/10/06 07:42:47;;;;;;;16.20;2.17;;;;;;;20.25;44.21;102849.41;5090964;28;20086;-73
2022/10/06 07:45:38;;;;;;;11.02;2.03;;;;;;;21.43;42.25;102855.81;5089556;28;20097;-73
2022/10/06 07:48:05;;;;;;;12.70;1.85;;;;;;;21.65;41.35;102854.41;5095459;27;20111;-74
2022/10/06 07:50:30;;;;;;;13.43;1.83;;;;;;;21.27;41.87;102865.94;5110840;27;20078;-74
2022/10/06 07:52:56;;;;;;;11.23;1.63;;;;;;;21.22;42.03;102873.16;5090843;28;20468;-73
2022/10/06 07:55:21;;;;;;;10.75;1.98;;;;;;;22.62;39.53;102866.94;5088312;28;20040;-74
2022/10/06 07:57:49;;;;;;;16.13;1.80;;;;;;;21.55;41.46;102875.97;5095014;28;20058;-74
2022/10/06 08:00:16;;;;;;;10.57;1.48;;;;;;;20.19;43.53;102879.59;5097706;28;20032;-74
2022/10/06 08:02:42;;;;;;;7.75;1.90;;;;;;;21.49;41.24;102875.16;5089993;28;20043;-73
2022/10/06 08:05:07;;;;;;;16.02;1.70;;;;;;;21.45;41.39;102880.59;5091132;28;20055;-74
2022/10/06 08:07:34;;;;;;;7.32;1.35;;;;;;;21.65;40.98;102888.13;5093318;28;20028;-74
2022/10/06 08:09:59;;;;;;;8.68;1.60;;;;;;;20.62;43.13;102884.13;5108176;28;20118;-74
2022/10/06 08:12:36;;;;;;;8.82;1.40;;;;;;;21.05;42.46;102898.31;5091213;28;20447;-73
2022/10/06 08:15:05;;;;;;;19.30;2.15;;;;;;;20.47;43.72;102890.59;5090067;28;20092;-74
2022/10/06 08:17:31;;;;;;;14.50;1.80;;;;;;;20.59;43.63;102894.78;5087210;28;20342;-74
2022/10/06 08:19:57;;;;;;;9.00;1.42;;;;;;;20.96;41.54;102909.16;5094847;28;20062;-73
2022/10/06 08:22:26;;;;;;;9.10;1.48;;;;;;;21.05;42.08;102908.97;5091682;28;20241;-74
2022/10/06 08:24:56;;;;;;;14.77;1.77;;;;;;;21.97;40.99;102902.44;5089802;28;20169;-74
2022/10/06 08:27:23;;;;;;;10.98;1.60;;;;;;;21.13;41.82;102909.66;5092304;28;20481;-73
2022/10/06 08:29:48;;;;;;;7.28;1.23;;;;;;;20.55;42.84;102913.47;5092318;28;20032;-75
2022/10/06 08:32:13;;;;;;;11.52;1.52;;;;;;;20.66;42.79;102906.16;5090060;28;20380;-73
2022/10/06 08:34:39;;;;;;;13.50;1.50;;;;;;;21.25;41.63;102911.16;5085942;28;20062;-73
2022/10/06 08:37:04;;;;;;;13.18;1.83;;;;;;;21.02;40.77;102914.34;5090515;28;20468;-73
2022/10/06 08:39:29;;;;;;;6.25;1.00;;;;;;;21.77;40.70;102919.75;5088157;28;20028;-73
2022/10/06 08:41:56;;;;;;;7.72;1.38;;;;;;;20.49;42.35;102931.28;5092397;28;20032;-73
2022/10/06 08:44:43;;;;;;;15.95;1.60;;;;;;;20.93;41.63;102930.47;5082473;28;20032;-74
2022/10/06 08:47:16;;;;;;;7.65;0.82;;;;;;;22.23;39.75;102922.16;5087836;28;20448;-74
2022/10/06 08:49:45;;;;;;;15.80;1.70;;;;;;;22.10;39.57;102927.81;5092667;28;20086;-74
2022/10/06 08:52:33;;;;;;;9.30;1.27;;;;;;;22.01;39.22;102939.56;5103311;28;20035;-73
2022/10/06 08:55:53;;;;;;;5.15;0.98;;;;;;;22.97;38.43;102937.03;5094030;28;20036;-73
2022/10/06 08:58:53;;;;;;;6.18;1.27;;;;;;;21.77;40.05;102941.03;5048131;28;20404;-73
2022/10/06 09:01:22;;;;;;;8.95;1.80;;;;;;;22.48;38.11;102944.59;5079248;28;20032;-74
2022/10/06 09:03:51;;;;;;;3.80;0.70;;;;;;;21.39;39.21;102965.84;5089401;28;20031;-73
2022/10/06 09:06:35;;;;;;;13.30;1.60;;;;;;;22.63;37.21;102953.97;5090956;28;20479;-73
2022/10/06 09:09:11;;;;;;;6.45;1.15;;;;;;;20.99;40.25;102956.91;5087091;28;20055;-74
2022/10/06 09:11:39;;;;;;;7.95;1.00;;;;;;;22.45;37.27;102966.00;5078631;28;20036;-75
2022/10/06 09:14:11;;;;;;;5.68;0.95;;;;;;;22.19;37.59;102972.84;5086021;28;20115;-74
2022/10/06 09:16:42;;;;;;;6.75;1.30;;;;;;;21.83;38.14;102967.53;5090090;28;20119;-73
2022/10/06 09:19:51;;;;;;;11.02;1.50;;;;;;;21.88;38.01;102979.84;5102356;28;20032;-73
2022/10/06 09:22:19;;;;;;;6.30;1.40;;;;;;;22.76;36.68;102981.16;5095485;28;20081;-73
2022/10/06 09:24:49;;;;;;;7.10;1.10;;;;;;;21.99;37.93;102983.13;5087333;28;20036;-74
2022/10/06 09:27:32;;;;;;;5.20;1.00;;;;;;;22.27;37.50;102977.09;5087123;28;20077;-73
2022/10/06 09:29:58;;;;;;;5.70;1.10;;;;;;;20.03;40.16;102990.50;5084623;28;20114;-73
2022/10/06 09:32:27;;;;;;;6.72;1.35;;;;;;;21.74;37.50;102986.38;5081593;28;20115;-74
2022/10/06 09:34:58;;;;;;;6.57;1.23;;;;;;;21.01;38.78;102987.88;5091996;28;20445;-72
2022/10/06 09:37:24;;;;;;;7.43;1.00;;;;;;;22.40;36.39;102978.56;5089686;28;20060;-73
2022/10/06 09:39:51;;;;;;;6.90;0.70;;;;;;;20.95;38.83;102976.50;5088506;28;20133;-73
2022/10/06 09:42:36;;;;;;;11.23;1.17;;;;;;;21.68;38.44;102983.88;5087163;28;20030;-72
2022/10/06 09:45:15;;;;;;;5.30;0.90;;;;;;;22.87;36.36;102981.75;5093497;28;20046;-73
2022/10/06 09:47:43;;;;;;;7.57;1.10;;;;;;;20.88;39.29;102990.81;5096738;28;20029;-73
2022/10/06 09:50:22;;;;;;;7.88;1.55;;;;;;;22.20;38.18;102985.25;5105588;28;20135;-73
2022/10/06 09:52:48;;;;;;;8.38;1.08;;;;;;;22.42;38.09;102984.75;5084959;28;20035;-73
2022/10/06 09:55:16;;;;;;;11.43;2.25;;;;;;;21.74;40.00;102983.69;5090280;28;20028;-73
2022/10/06 09:57:51;;;;;;;9.02;1.45;;;;;;;22.55;37.62;102979.09;5088073;28;20076;-73
2022/10/06 10:00:30;;;;;;;9.60;1.48;;;;;;;22.67;36.98;102982.28;5094164;28;20024;-74
2022/10/06 10:03:05;;;;;;;10.82;1.45;;;;;;;24.01;35.79;102979.25;5085961;28;20034;-74
2022/10/06 10:05:33;;;;;;;11.57;1.50;;;;;;;24.53;34.47;102977.47;5097308;28;20074;-74
2022/10/06 10:08:20;;;;;;;5.57;1.38;;;;;;;22.98;35.89;102980.56;5098018;28;20487;-74
2022/10/06 10:10:46;;;;;;;4.15;0.90;;;;;;;22.92;34.98;102991.41;5097917;28;20052;-75
2022/10/06 10:13:25;;;;;;;4.53;0.90;;;;;;;22.98;35.41;102996.56;5092679;28;20034;-75
2022/10/06 10:16:00;;;;;;;6.82;1.55;;;;;;;23.29;35.81;102985.03;5111927;27;20081;-75
2022/10/06 10:18:29;;;;;;;6.35;1.35;;;;;;;21.99;36.54;102999.09;5091160;28;20028;-74
2022/10/06 10:21:09;;;;;;;9.25;1.33;;;;;;;23.02;35.11;102999.09;5095475;28;20059;-73
2022/10/06 10:23:35;;;;;;;10.50;1.85;;;;;;;22.69;34.91;103000.91;5088231;28;20472;-73
2022/10/06 10:26:12;;;;;;;11.93;1.33;;;;;;;22.79;35.96;103002.41;5092728;28;20059;-75
2022/10/06 10:29:03;;;;;;;7.82;0.82;;;;;;;22.18;36.95;103004.84;5097097;28;20383;-74
2022/10/06 10:31:53;;;;;;;8.82;0.88;;;;;;;22.86;35.71;103003.09;5094707;28;20119;-74
2022/10/06 10:34:43;;;;;;;10.63;1.05;;;;;;;23.98;35.36;103000.72;5097921;27;20380;-74
2022/10/06 10:37:50;;;;;;;6.18;1.25;;;;;;;22.74;35.78;103007.00;5077277;28;20373;-74
2022/10/06 10:40:31;;;;;;;6.90;0.90;;;;;;;22.61;35.97;103009.09;5073912;28;20089;-74
2022/10/06 10:43:10;;;;;;;2.85;0.80;;;;;;;23.27;35.29;103003.75;5091045;28;20035;-74
2022/10/06 10:45:43;;;;;;;10.18;1.08;;;;;;;22.76;37.08;103002.47;5091096;28;20035;-74
2022/10/06 10:48:21;;;;;;;6.75;1.00;;;;;;;22.14;36.64;102998.72;5110540;28;20023;-74
2022/10/06 10:50:49;;;;;;;9.45;1.20;;;;;;;23.81;34.48;103010.13;5110110;28;20051;-74
2022/10/06 10:53:46;;;;;;;7.55;1.27;;;;;;;23.80;34.90;103008.38;5108881;28;20023;-74
2022/10/06 10:56:15;;;;;;;7.13;1.23;;;;;;;24.19;34.62;103005.38;5088575;28;20484;-73
2022/10/06 10:58:42;;;;;;;8.98;1.40;;;;;;;22.53;36.29;103009.31;5093277;28;20036;-74
2022/10/06 11:01:10;;;;;;;8.20;1.48;;;;;;;23.06;35.46;103015.03;5085268;28;20059;-75
2022/10/06 11:03:36;;;;;;;6.20;0.90;;;;;;;24.52;33.55;103007.81;5089969;28;20423;-74
2022/10/06 11:06:19;;;;;;;6.53;1.20;;;;;;;22.12;34.95;103020.97;5095160;28;20027;-75
2022/10/06 11:09:01;;;;;;;4.13;0.80;;;;;;;23.13;34.92;103017.47;5094698;28;20032;-73
2022/10/06 11:11:48;;;;;;;7.57;1.13;;;;;;;22.39;34.63;103024.78;5104818;27;20471;-73
2022/10/06 11:14:28;;;;;;;9.02;1.20;;;;;;;23.81;34.10;103023.47;5100255;27;20046;-74
2022/10/06 11:17:05;;;;;;;9.88;1.30;;;;;;;23.06;34.47;103029.22;5111557;27;20036;-74
2022/10/06 11:20:00;;;;;;;8.13;0.93;;;;;;;23.59;33.56;103020.59;5112415;27;20253;-73
2022/10/06 11:23:02;;;;;;;10.68;1.13;;;;;;;24.30;31.67;103017.47;5090171;28;20052;-74
2022/10/06 11:25:32;;;;;;;6.78;0.98;;;;;;;23.76;32.52;103025.41;5091505;28;20032;-73
2022/10/06 11:28:10;;;;;;;4.72;1.27;;;;;;;23.55;33.08;103021.63;5088672;28;20092;-73
2022/10/06 11:30:54;;;;;;;7.18;0.98;;;;;;;24.05;31.96;103023.63;5092227;28;20045;-72
2022/10/06 11:33:45;;;;;;;10.25;1.60;;;;;;;24.74;30.78;103023.09;5092179;28;20043;-72
2022/10/06 11:36:37;;;;;;;13.27;1.33;;;;;;;24.31;31.73;103017.41;5085837;28;20043;-72
2022/10/06 11:39:15;;;;;;;6.15;0.80;;;;;;;23.71;31.88;103033.56;5060461;28;20098;-73
2022/10/06 11:42:10;;;;;;;3.53;1.10;;;;;;;22.51;32.50;103024.44;5089966;28;20173;-73
2022/10/06 11:44:53;;;;;;;8.10;1.00;;;;;;;23.97;30.82;103037.22;5094335;28;20111;-73
2022/10/06 11:47:41;;;;;;;6.75;1.45;;;;;;;23.23;32.58;103027.91;5096765;27;20081;-73